Time;durP1;ratioP1;P1;durP2;ratioP2;P2;SDS_P1;SDS_P2;PMS_P1;PMS_P2;Temp;Humidity;BMP_temperature;BMP_pressure;BME280_temperature;BME280_humidity;BME280_pressure;Samples;Min_cycle;Max_cycle;Signal;HPM_P1;HPM_P2
2021/03/09 00:01:51;;;;;;;0.10;0.10;;;;;;;-5.07;77.14;100738.97;1760263;81;21505;-49
2021/03/09 00:04:52;;;;;;;0.10;0.10;;;;;;;-5.10;77.41;100746.80;1757497;80;21135;-48
2021/03/09 00:07:52;;;;;;;0.10;0.10;;;;;;;-5.08;77.63;100750.64;1760080;81;21198;-48
2021/03/09 00:10:53;;;;;;;0.10;0.10;;;;;;;-5.10;77.67;100750.80;1760249;80;21177;-50
2021/03/09 00:13:54;;;;;;;0.10;0.10;;;;;;;-5.13;77.78;100744.48;1757707;81;21473;-48
2021/03/09 00:16:54;;;;;;;0.10;0.10;;;;;;;-5.15;78.00;100751.81;1760348;81;21509;-48
2021/03/09 00:19:54;;;;;;;0.10;0.10;;;;;;;-5.15;78.05;100749.66;1760184;80;21158;-48
2021/03/09 00:22:55;;;;;;;0.10;0.10;;;;;;;-5.17;78.12;100751.14;1759182;80;21163;-48
2021/03/09 00:25:57;;;;;;;0.10;0.10;;;;;;;-5.18;78.15;100749.49;1760231;80;21126;-48
2021/03/09 00:28:57;;;;;;;0.10;0.10;;;;;;;-5.21;78.21;100752.50;1760021;81;21161;-48
2021/03/09 00:31:58;;;;;;;0.10;0.10;;;;;;;-5.25;78.21;100751.99;1757724;81;21167;-48
2021/03/09 00:34:59;;;;;;;0.10;0.10;;;;;;;-5.29;78.21;100752.02;1760364;80;21179;-48
2021/03/09 00:38:00;;;;;;;0.10;0.10;;;;;;;-5.32;78.32;100751.50;1760099;81;21157;-48
2021/03/09 00:41:00;;;;;;;0.57;0.57;;;;;;;-5.35;78.39;100759.33;1759098;80;21150;-49
2021/03/09 00:44:01;;;;;;;0.10;0.10;;;;;;;-5.39;78.36;100757.99;1760299;81;21178;-48
2021/03/09 00:47:02;;;;;;;0.10;0.10;;;;;;;-5.43;78.46;100753.52;1760349;81;21146;-48
2021/03/09 00:50:02;;;;;;;0.62;0.62;;;;;;;-5.43;78.55;100754.02;1757788;81;21164;-49
2021/03/09 00:53:03;;;;;;;0.23;0.23;;;;;;;-5.44;78.59;100759.00;1760242;81;21174;-48
2021/03/09 00:56:03;;;;;;;0.10;0.10;;;;;;;-5.46;78.49;100763.69;1760173;80;21134;-48
2021/03/09 00:59:03;;;;;;;0.10;0.10;;;;;;;-5.49;78.64;100761.33;1759320;81;21441;-48
2021/03/09 01:02:04;;;;;;;0.10;0.10;;;;;;;-5.52;78.65;100760.34;1760322;81;21131;-48
2021/03/09 01:05:05;;;;;;;0.10;0.10;;;;;;;-5.55;78.75;100760.69;1760383;80;21214;-48
2021/03/09 01:08:05;;;;;;;0.25;0.25;;;;;;;-5.57;78.77;100766.16;1757831;79;21574;-48
2021/03/09 01:11:07;;;;;;;0.10;0.10;;;;;;;-5.60;78.80;100765.17;1760442;80;21517;-48
2021/03/09 01:14:08;;;;;;;0.25;0.25;;;;;;;-5.65;78.53;100765.66;1760252;80;21130;-48
2021/03/09 01:17:08;;;;;;;0.20;0.20;;;;;;;-5.67;78.88;100779.63;1758034;79;21130;-48
2021/03/09 01:20:12;;;;;;;0.10;0.10;;;;;;;-5.69;78.98;100776.30;1760144;80;21158;-48
2021/03/09 01:23:13;;;;;;;2.00;0.75;;;;;;;-5.68;79.06;100770.00;1760352;81;21146;-49
2021/03/09 01:26:14;;;;;;;0.10;0.10;;;;;;;-5.66;78.95;100772.50;1757949;80;21177;-48
2021/03/09 01:29:14;;;;;;;0.10;0.10;;;;;;;-5.59;79.10;100789.45;1760202;80;21134;-48
2021/03/09 01:32:15;;;;;;;0.10;0.10;;;;;;;-5.56;79.13;100791.81;1760418;81;21960;-48
2021/03/09 01:35:16;;;;;;;0.10;0.10;;;;;;;-5.49;79.33;100787.96;1757875;80;21196;-48
2021/03/09 01:38:17;;;;;;;0.10;0.10;;;;;;;-5.46;79.00;100786.33;1760256;81;21155;-48
2021/03/09 01:41:18;;;;;;;0.10;0.10;;;;;;;-5.44;78.87;100785.63;1760304;80;21154;-48
2021/03/09 01:44:19;;;;;;;0.15;0.15;;;;;;;-5.39;78.72;100787.29;1757822;80;21147;-48
2021/03/09 01:47:19;;;;;;;0.10;0.10;;;;;;;-5.34;78.53;100787.66;1760134;81;21118;-49
2021/03/09 01:50:22;;;;;;;0.17;0.17;;;;;;;-5.35;78.35;100792.63;1759984;80;21138;-48
2021/03/09 01:53:23;;;;;;;0.20;0.20;;;;;;;-5.38;78.19;100794.30;1759355;81;21134;-49
2021/03/09 01:56:23;;;;;;;1.00;0.65;;;;;;;-5.41;78.08;100793.31;1760261;80;21158;-48
2021/03/09 01:59:24;;;;;;;0.20;0.20;;;;;;;-5.45;77.93;100802.11;1760325;80;21015;-48
2021/03/09 02:02:25;;;;;;;0.15;0.15;;;;;;;-5.49;77.68;100805.27;1735083;81;21135;-48
2021/03/09 02:05:26;;;;;;;0.68;0.68;;;;;;;-5.55;77.84;100813.44;1778138;80;21127;-48
2021/03/09 02:08:26;;;;;;;0.65;0.65;;;;;;;-5.62;77.81;100823.91;1778117;80;21127;-48
2021/03/09 02:12:07;;;;;;;0.20;0.20;;;;;;;-5.69;77.83;100817.56;1764339;79;21553;-47
2021/03/09 02:15:25;;;;;;;0.47;0.47;;;;;;;-5.75;77.88;100828.88;1809793;79;21099;-47
2021/03/09 02:18:49;;;;;;;0.33;0.33;;;;;;;-5.84;78.03;100821.88;1810325;78;21127;-48
2021/03/09 02:22:04;;;;;;;;;;;;;;;-5.88;78.08;100821.38;1744997;79;21128;-48
2021/03/09 02:25:32;;;;;;;0.10;0.10;;;;;;;-5.93;78.26;100829.02;1809686;79;20275;-47
2021/03/09 02:28:46;;;;;;;0.10;0.10;;;;;;;-6.00;78.36;100825.88;1809976;79;21112;-48
2021/03/09 02:31:47;;;;;;;0.10;0.10;;;;;;;-6.09;78.68;100837.80;1804363;79;21215;-48
2021/03/09 02:34:51;;;;;;;0.10;0.10;;;;;;;-6.11;78.62;100838.48;1760259;80;21190;-48
2021/03/09 02:37:52;;;;;;;0.10;0.10;;;;;;;-6.11;78.62;100838.48;1808260;79;21120;-48
2021/03/09 02:40:53;;;;;;;0.80;0.65;;;;;;;-6.15;78.80;100843.78;1785153;79;21663;-48
2021/03/09 02:43:57;;;;;;;0.10;0.10;;;;;;;-6.19;78.90;100850.41;1789075;79;21427;-48
2021/03/09 02:46:57;;;;;;;0.10;0.10;;;;;;;-6.24;78.96;100845.23;1809945;79;21095;-48
2021/03/09 02:49:58;;;;;;;0.10;0.10;;;;;;;-6.28;79.09;100848.70;1804136;79;21158;-48
2021/03/09 02:53:02;;;;;;;0.50;0.50;;;;;;;-6.31;79.24;100853.02;1737206;81;21154;-48
2021/03/09 02:56:03;;;;;;;0.10;0.10;;;;;;;-6.33;79.40;100851.86;1808011;79;21135;-48
2021/03/09 02:59:03;;;;;;;0.10;0.10;;;;;;;-6.32;79.56;100842.88;1758162;80;21577;-48
2021/03/09 03:02:03;;;;;;;0.10;0.10;;;;;;;-6.28;79.64;100840.72;1757765;80;21183;-48
2021/03/09 03:05:04;;;;;;;0.10;0.10;;;;;;;-6.23;79.80;100837.58;1777918;80;21597;-48
2021/03/09 03:08:05;;;;;;;0.13;0.13;;;;;;;-6.09;79.81;100847.62;1787789;79;21237;-48
2021/03/09 03:11:04;;;;;;;0.10;0.10;;;;;;;-6.09;79.81;100847.62;1718653;81;21131;-48
2021/03/09 03:14:08;;;;;;;0.10;0.10;;;;;;;-6.03;79.95;100854.97;1737227;81;21414;-48
2021/03/09 03:17:08;;;;;;;0.10;0.10;;;;;;;-5.96;79.94;100859.12;1785742;79;21088;-48
2021/03/09 03:20:14;;;;;;;0.20;0.20;;;;;;;-5.88;79.99;100857.81;1746582;82;27901;-48
2021/03/09 03:23:14;;;;;;;0.10;0.10;;;;;;;-5.81;79.96;100861.50;1727356;82;21155;-48
2021/03/09 03:26:16;;;;;;;0.10;0.10;;;;;;;-5.72;79.90;100868.48;1740310;82;21648;-48
2021/03/09 03:29:17;;;;;;;0.10;0.10;;;;;;;-5.65;79.81;100866.84;1746581;81;21213;-48
2021/03/09 03:32:20;;;;;;;0.10;0.10;;;;;;;-5.57;79.71;100869.19;1746584;81;21175;-48
2021/03/09 03:35:21;;;;;;;0.20;0.20;;;;;;;-5.51;79.56;100873.88;1740404;82;22038;-48
2021/03/09 03:38:23;;;;;;;0.17;0.17;;;;;;;-5.45;79.43;100882.52;1746679;81;21182;-48
2021/03/09 03:41:23;;;;;;;0.10;0.10;;;;;;;-5.40;79.29;100874.88;1746595;82;21590;-48
2021/03/09 03:44:23;;;;;;;0.10;0.10;;;;;;;-5.35;79.23;100880.53;1745056;81;21134;-48
2021/03/09 03:47:24;;;;;;;0.10;0.10;;;;;;;-5.31;79.14;100888.55;1746521;82;21143;-48
2021/03/09 03:50:26;;;;;;;0.10;0.10;;;;;;;-5.27;79.05;100893.85;1745726;81;21452;-48
2021/03/09 03:53:38;;;;;;;0.10;0.10;;;;;;;-5.23;78.95;100892.53;1745666;82;21182;-48
2021/03/09 03:57:02;;;;;;;0.10;0.10;;;;;;;-5.21;78.84;100887.88;1746556;81;21147;-48
2021/03/09 04:00:05;;;;;;;0.23;0.23;;;;;;;-5.17;78.75;100898.20;1746348;81;21191;-48
2021/03/09 04:03:05;;;;;;;0.10;0.10;;;;;;;-5.14;78.71;100895.20;1729427;81;21121;-48
2021/03/09 04:06:06;;;;;;;0.10;0.10;;;;;;;-5.12;78.64;100898.53;1753725;81;21146;-48
2021/03/09 04:09:13;;;;;;;0.10;0.10;;;;;;;-5.09;78.65;100898.23;1708647;82;21210;-48
2021/03/09 04:12:14;;;;;;;0.20;0.20;;;;;;;-5.06;78.65;100897.89;1759252;81;21039;-48
2021/03/09 04:15:17;;;;;;;0.10;0.10;;;;;;;-5.03;78.67;100905.54;1754608;81;21131;-48
2021/03/09 04:18:18;;;;;;;0.10;0.10;;;;;;;-5.02;78.61;100893.39;1746410;78;21108;-48
2021/03/09 04:21:19;;;;;;;0.10;0.10;;;;;;;-5.00;78.55;100906.03;1731716;82;21150;-48
2021/03/09 04:24:19;;;;;;;0.10;0.10;;;;;;;-4.98;78.45;100906.70;1764805;80;21182;-48
2021/03/09 04:27:21;;;;;;;0.10;0.10;;;;;;;-4.95;78.41;100904.20;1777729;80;21132;-48
2021/03/09 04:30:22;;;;;;;0.10;0.10;;;;;;;-4.92;78.36;100904.36;1765760;80;21154;-48
2021/03/09 04:33:22;;;;;;;0.10;0.10;;;;;;;-4.90;78.35;100906.37;1773515;80;21148;-47
2021/03/09 04:36:25;;;;;;;0.10;0.10;;;;;;;-4.86;78.32;100917.05;1780703;80;21210;-48
2021/03/09 04:39:25;;;;;;;0.10;0.10;;;;;;;-4.84;78.26;100916.38;1758781;80;21196;-48
2021/03/09 04:42:26;;;;;;;0.10;0.10;;;;;;;-4.82;78.18;100910.35;1780621;80;21222;-48
2021/03/09 04:45:26;;;;;;;0.15;0.15;;;;;;;-4.78;78.18;100927.69;1780551;80;21565;-48
2021/03/09 04:48:27;;;;;;;0.23;0.23;;;;;;;-4.74;78.15;100925.55;1778643;80;21152;-48
2021/03/09 04:51:28;;;;;;;0.10;0.10;;;;;;;-4.70;78.11;100929.02;1760755;80;21677;-48
2021/03/09 04:54:28;;;;;;;0.23;0.23;;;;;;;-4.66;78.02;100934.86;1780787;79;21273;-48
2021/03/09 04:57:45;;;;;;;0.30;0.30;;;;;;;-4.61;77.89;100935.19;1777825;80;21128;-48
2021/03/09 05:00:46;;;;;;;0.10;0.10;;;;;;;-4.55;77.75;100938.50;1781212;80;21169;-48
2021/03/09 05:03:47;;;;;;;1.40;0.82;;;;;;;-4.49;77.63;100940.51;1781127;80;21124;-48
2021/03/09 05:06:47;;;;;;;0.53;0.53;;;;;;;-4.44;77.52;100943.50;1781770;80;21128;-48
2021/03/09 05:09:50;;;;;;;0.53;0.53;;;;;;;-4.38;77.44;100944.14;1784850;80;21199;-48
2021/03/09 05:12:55;;;;;;;2.55;0.60;;;;;;;-4.33;77.33;100944.50;1766494;80;21161;-47
2021/03/09 05:15:56;;;;;;;0.20;0.20;;;;;;;-4.28;77.17;100946.63;1765433;80;21154;-48
2021/03/09 05:18:56;;;;;;;0.47;0.47;;;;;;;-4.22;77.00;100951.81;1787763;78;21628;-48
2021/03/09 05:21:57;;;;;;;0.57;0.57;;;;;;;-4.17;76.67;100958.30;1780340;80;21143;-48
2021/03/09 05:24:57;;;;;;;0.30;0.30;;;;;;;-4.10;76.40;100957.12;1797707;79;21139;-48
2021/03/09 05:27:58;;;;;;;0.20;0.20;;;;;;;-4.04;76.31;100961.75;1780384;79;21186;-47
2021/03/09 05:30:59;;;;;;;0.30;0.30;;;;;;;-3.97;76.22;100960.58;1729483;82;21441;-48
2021/03/09 05:34:00;;;;;;;0.10;0.10;;;;;;;-3.91;75.96;100959.88;1795280;79;21379;-48
2021/03/09 05:37:01;;;;;;;0.13;0.13;;;;;;;-3.84;75.64;100966.70;1807523;79;21546;-48
2021/03/09 05:40:01;;;;;;;0.10;0.10;;;;;;;-3.77;75.26;100966.34;1788535;79;21221;-48
2021/03/09 05:43:02;;;;;;;0.10;0.10;;;;;;;-3.69;74.81;100967.64;1802987;79;21167;-48
2021/03/09 05:46:02;;;;;;;0.10;0.10;;;;;;;-3.61;74.53;100978.80;1759142;79;21133;-47
2021/03/09 05:49:04;;;;;;;0.10;0.10;;;;;;;-3.53;74.27;100978.78;1805606;79;21099;-48
2021/03/09 05:52:06;;;;;;;0.10;0.10;;;;;;;-3.46;74.08;100980.58;1723935;81;21198;-48
2021/03/09 05:55:07;;;;;;;0.10;0.10;;;;;;;-3.37;73.75;100991.22;1784221;79;21199;-48
2021/03/09 05:58:08;;;;;;;0.10;0.10;;;;;;;-3.30;73.37;100990.34;1801770;79;21174;-47
2021/03/09 06:01:09;;;;;;;0.20;0.20;;;;;;;-3.22;73.40;100993.47;1789367;79;21119;-47
2021/03/09 06:04:09;;;;;;;0.10;0.10;;;;;;;-3.12;73.15;100991.91;1780610;79;21451;-48
2021/03/09 06:07:10;;;;;;;0.10;0.10;;;;;;;-3.01;72.96;101000.05;1788406;79;21119;-48
2021/03/09 06:10:12;;;;;;;0.20;0.20;;;;;;;-2.92;72.55;101006.98;1794895;79;21230;-48
2021/03/09 06:13:13;;;;;;;0.10;0.10;;;;;;;-2.82;72.63;101008.92;1775673;79;21571;-48
2021/03/09 06:16:13;;;;;;;0.10;0.10;;;;;;;-2.72;71.74;101015.38;1801168;79;21334;-47
2021/03/09 06:19:14;;;;;;;0.10;0.10;;;;;;;-2.66;71.54;101018.17;1785853;79;21135;-48
2021/03/09 06:22:16;;;;;;;0.10;0.10;;;;;;;-2.54;71.09;101020.45;1776135;79;21102;-48
2021/03/09 06:25:21;;;;;;;0.10;0.10;;;;;;;-2.47;70.67;101024.90;1789495;78;21517;-48
2021/03/09 06:28:22;;;;;;;0.10;0.10;;;;;;;-2.40;70.79;101025.84;1798231;79;21096;-47
2021/03/09 06:31:22;;;;;;;0.10;0.10;;;;;;;-2.29;70.41;101025.91;1749645;79;21147;-47
2021/03/09 06:34:38;;;;;;;1.23;0.97;;;;;;;-2.20;69.49;101027.51;1775238;79;21569;-48
2021/03/09 06:37:38;;;;;;;0.10;0.10;;;;;;;-2.10;69.21;101034.43;1809410;79;21416;-48
2021/03/09 06:40:39;;;;;;;0.10;0.10;;;;;;;-2.01;69.03;101026.65;1809962;79;21122;-48
2021/03/09 06:43:39;;;;;;;0.17;0.17;;;;;;;-1.92;68.68;101040.30;1794022;79;21146;-48
2021/03/09 06:46:54;;;;;;;0.10;0.10;;;;;;;-1.86;68.19;101039.55;1787366;79;21155;-47
2021/03/09 06:50:00;;;;;;;0.80;0.80;;;;;;;-1.80;67.39;101045.53;1794306;79;21156;-47
2021/03/09 06:53:10;;;;;;;0.00;0.00;;;;;;;-1.80;66.92;101045.53;1798198;79;21142;-48
2021/03/09 06:56:31;;;;;;;0.15;0.15;;;;;;;-1.75;67.09;101047.66;1789541;79;21163;-47
2021/03/09 06:59:34;;;;;;;0.10;0.10;;;;;;;-1.70;65.91;101049.80;1790904;78;21694;-47
2021/03/09 07:02:36;;;;;;;0.23;0.23;;;;;;;-1.72;65.92;101055.84;1794689;79;21458;-48
2021/03/09 07:05:37;;;;;;;0.10;0.10;;;;;;;-1.72;65.54;101057.18;1797074;79;21446;-48
2021/03/09 07:08:38;;;;;;;0.10;0.10;;;;;;;-1.78;64.87;101056.90;1785678;79;21427;-48
2021/03/09 07:11:38;;;;;;;0.72;0.55;;;;;;;-1.86;65.06;101065.00;1780761;80;21179;-49
2021/03/09 07:14:38;;;;;;;0.10;0.10;;;;;;;-1.91;65.32;101066.05;1789812;79;21142;-47
2021/03/09 07:17:41;;;;;;;0.08;0.08;;;;;;;-1.93;65.48;101078.80;1765098;80;21087;-48
2021/03/09 07:20:42;;;;;;;0.08;0.08;;;;;;;-1.97;65.63;101074.32;1773460;79;21549;-47
2021/03/09 07:23:42;;;;;;;0.10;0.10;;;;;;;-2.06;66.56;101076.73;1770607;79;21115;-48
2021/03/09 07:26:44;;;;;;;0.10;0.10;;;;;;;-2.11;66.02;101085.00;1791211;79;21178;-47
2021/03/09 07:29:48;;;;;;;0.10;0.10;;;;;;;-2.18;66.41;101095.11;1759107;79;21438;-48
2021/03/09 07:32:52;;;;;;;0.10;0.10;;;;;;;-2.27;67.04;101094.84;1753782;80;21185;-48
2021/03/09 07:35:53;;;;;;;0.15;0.15;;;;;;;-2.40;68.34;101109.30;1780619;79;21140;-48
2021/03/09 07:38:53;;;;;;;0.10;0.10;;;;;;;-2.49;69.79;101110.39;1778026;80;21155;-47
2021/03/09 07:41:53;;;;;;;0.10;0.10;;;;;;;-2.59;71.08;101111.95;1765909;80;21162;-48
2021/03/09 07:44:54;;;;;;;0.20;0.20;;;;;;;-2.67;72.07;101126.22;1766588;79;21412;-48
2021/03/09 07:47:57;;;;;;;0.05;0.05;;;;;;;-2.69;72.39;101126.90;1757654;80;21146;-47
2021/03/09 07:50:58;;;;;;;0.10;0.10;;;;;;;-2.70;73.01;101131.91;1806116;79;21095;-48
2021/03/09 07:54:17;;;;;;;0.35;0.30;;;;;;;-2.68;73.64;101131.23;1807601;79;21103;-48
2021/03/09 07:57:28;;;;;;;0.10;0.10;;;;;;;-2.61;74.62;101137.55;1795164;79;21130;-48
2021/03/09 08:00:28;;;;;;;2.42;0.68;;;;;;;-2.54;74.46;101137.69;1777622;80;21193;-48
2021/03/09 08:03:31;;;;;;;0.08;0.08;;;;;;;-2.64;73.45;101144.59;1785736;79;21493;-47
2021/03/09 08:06:25;;;;;;;0.45;0.40;;;;;;;-2.71;73.89;101147.64;1786089;79;21132;-48
2021/03/09 08:09:44;;;;;;;0.10;0.10;;;;;;;-2.72;74.17;101141.97;1756116;80;21189;-47
2021/03/09 08:12:44;;;;;;;0.20;0.20;;;;;;;-2.70;73.88;101146.62;1790750;79;21150;-47
2021/03/09 08:15:45;;;;;;;0.00;0.00;;;;;;;-2.65;73.57;101143.42;1787441;79;21449;-48
2021/03/09 08:18:47;;;;;;;0.10;0.10;;;;;;;-2.60;73.80;101141.05;1778098;79;21191;-47
2021/03/09 08:22:07;;;;;;;0.88;0.88;;;;;;;-2.55;74.62;101149.37;1767154;80;21119;-48
2021/03/09 08:25:07;;;;;;;0.00;0.00;;;;;;;-2.50;74.30;101146.17;1769314;80;21110;-47
2021/03/09 08:28:15;;;;;;;0.10;0.10;;;;;;;-2.54;74.67;101144.88;1744625;82;21166;-47
2021/03/09 08:31:22;;;;;;;0.75;0.75;;;;;;;-2.48;73.86;101137.47;1761931;81;21175;-47
2021/03/09 08:34:28;;;;;;;0.10;0.10;;;;;;;-2.39;73.54;101145.27;1766534;80;21139;-47
2021/03/09 08:37:38;;;;;;;0.25;0.25;;;;;;;-2.15;74.39;101143.45;1774048;79;21146;-47
2021/03/09 08:40:39;;;;;;;0.10;0.10;;;;;;;-1.90;73.05;101148.11;1753696;80;21167;-48
2021/03/09 08:43:39;;;;;;;0.10;0.10;;;;;;;-1.59;71.38;101151.16;1772151;80;21553;-48
2021/03/09 08:47:05;;;;;;;0.20;0.20;;;;;;;-1.56;68.51;101151.66;1774804;80;21138;-48
2021/03/09 08:50:06;;;;;;;0.10;0.10;;;;;;;-1.63;67.50;101137.31;1775030;80;21152;-48
2021/03/09 08:53:06;;;;;;;0.00;0.00;;;;;;;-1.79;66.13;101146.83;1729679;82;21173;-47
2021/03/09 08:56:09;;;;;;;0.20;0.20;;;;;;;-1.98;64.07;101152.17;1732914;80;21628;-48
2021/03/09 08:59:10;;;;;;;0.10;0.10;;;;;;;-2.19;65.76;101148.83;1730186;81;21211;-47
2021/03/09 09:02:16;;;;;;;0.10;0.10;;;;;;;-2.24;64.93;101147.19;1748836;80;21130;-48
2021/03/09 09:05:18;;;;;;;0.53;0.53;;;;;;;-2.26;66.51;101146.02;1725808;81;21162;-47
2021/03/09 09:08:25;;;;;;;0.10;0.10;;;;;;;-2.18;65.85;101146.46;1710725;82;21150;-47
2021/03/09 09:11:19;;;;;;;0.10;0.10;;;;;;;-2.00;65.70;101144.33;1730171;81;21162;-47
2021/03/09 09:14:23;;;;;;;0.15;0.15;;;;;;;-1.69;65.74;101149.25;1736073;82;21211;-48
2021/03/09 09:17:23;;;;;;;0.47;0.45;;;;;;;-1.43;63.96;101144.31;1714878;82;21197;-47
2021/03/09 09:20:37;;;;;;;0.20;0.20;;;;;;;-1.34;63.56;101157.11;1751452;80;21138;-48
2021/03/09 09:23:38;;;;;;;0.00;0.00;;;;;;;-1.18;62.51;101147.55;1791450;79;21099;-48
2021/03/09 09:26:38;;;;;;;0.25;0.25;;;;;;;-0.83;62.23;101148.32;1764826;79;21124;-48
2021/03/09 09:29:38;;;;;;;0.10;0.10;;;;;;;-0.59;59.23;101143.98;1805433;79;21182;-47
2021/03/09 09:32:54;;;;;;;0.00;0.00;;;;;;;-0.49;57.67;101147.70;1793707;77;21154;-47
2021/03/09 09:35:55;;;;;;;0.17;0.17;;;;;;;-0.38;58.02;101151.73;1795871;79;21143;-47
2021/03/09 09:38:57;;;;;;;0.00;0.00;;;;;;;-0.18;56.99;101151.42;1783393;79;21170;-47
2021/03/09 09:41:57;;;;;;;0.13;0.13;;;;;;;-0.10;54.87;101157.17;1806297;79;21107;-47
2021/03/09 09:44:58;;;;;;;0.00;0.00;;;;;;;-0.19;55.75;101164.55;1801713;79;21140;-47
2021/03/09 09:47:59;;;;;;;0.20;0.20;;;;;;;-0.22;56.42;101168.96;1782416;79;21275;-47
2021/03/09 09:51:02;;;;;;;0.03;0.03;;;;;;;-0.46;55.53;101174.98;1801716;79;21096;-48
2021/03/09 09:54:03;;;;;;;0.10;0.10;;;;;;;-0.74;56.86;101175.36;1806037;79;21119;-47
2021/03/09 09:57:16;;;;;;;0.00;0.00;;;;;;;-0.87;56.95;101172.85;1791961;79;21118;-47
2021/03/09 10:00:18;;;;;;;0.10;0.10;;;;;;;-0.94;56.80;101181.32;1773275;79;21055;-44
2021/03/09 10:03:21;;;;;;;0.10;0.10;;;;;;;-0.98;58.07;101173.83;1786011;78;21189;-44
2021/03/09 10:06:24;;;;;;;0.17;0.17;;;;;;;-0.91;58.24;101172.06;1793505;79;21789;-45
2021/03/09 10:09:29;;;;;;;0.10;0.10;;;;;;;-0.79;57.99;101176.43;1759724;80;21581;-44
2021/03/09 10:12:38;;;;;;;0.10;0.10;;;;;;;-0.64;56.24;101170.55;1807833;77;21445;-44
2021/03/09 10:15:54;;;;;;;0.15;0.15;;;;;;;-0.55;56.56;101169.92;1789054;79;21515;-44
2021/03/09 10:18:56;;;;;;;0.17;0.17;;;;;;;-0.44;55.68;101171.61;1792951;79;21175;-45
2021/03/09 10:22:00;;;;;;;0.00;0.00;;;;;;;-0.43;55.36;101167.06;1762023;77;21184;-44
2021/03/09 10:25:16;;;;;;;0.10;0.10;;;;;;;-0.47;55.66;101167.97;1742351;81;21159;-44
2021/03/09 10:28:16;;;;;;;0.10;0.10;;;;;;;-0.26;55.32;101167.15;1746142;81;21103;-45
2021/03/09 10:31:19;;;;;;;0.25;0.25;;;;;;;-0.10;53.95;101179.52;1733912;81;21172;-45
2021/03/09 10:34:24;;;;;;;0.10;0.10;;;;;;;-0.06;53.49;101172.72;1748445;81;21187;-44
2021/03/09 10:37:41;;;;;;;0.10;0.10;;;;;;;-0.10;53.29;101178.19;1758308;81;21151;-45
2021/03/09 10:40:42;;;;;;;0.10;0.10;;;;;;;-0.19;52.97;101180.66;1759303;81;21120;-44
2021/03/09 10:43:49;;;;;;;0.80;0.80;;;;;;;-0.25;53.42;101177.38;1740787;81;21076;-45
2021/03/09 10:46:50;;;;;;;0.00;0.00;;;;;;;-0.31;54.01;101174.95;1753578;81;21640;-44
2021/03/09 10:49:50;;;;;;;0.00;0.00;;;;;;;-0.32;54.23;101170.61;1751804;81;21151;-44
2021/03/09 10:52:50;;;;;;;0.47;0.47;;;;;;;-0.24;53.30;101178.55;1756079;81;21139;-44
2021/03/09 10:55:51;;;;;;;0.13;0.13;;;;;;;-0.17;52.24;101171.91;1758661;81;21124;-45
2021/03/09 10:58:51;;;;;;;0.30;0.30;;;;;;;-0.08;51.58;101169.91;1749950;81;21425;-44
2021/03/09 11:01:54;;;;;;;0.00;0.00;;;;;;;-0.05;52.25;101170.86;1758522;81;21154;-44
2021/03/09 11:04:55;;;;;;;0.10;0.10;;;;;;;-0.08;51.97;101173.42;1758779;81;21151;-45
2021/03/09 11:07:55;;;;;;;0.53;0.47;;;;;;;-0.24;52.70;101176.37;1753855;81;21563;-45
2021/03/09 11:11:01;;;;;;;0.10;0.10;;;;;;;-0.39;53.07;101180.97;1749957;81;21119;-45
2021/03/09 11:14:01;;;;;;;0.47;0.47;;;;;;;-0.50;53.70;101179.06;1710208;81;21150;-44
2021/03/09 11:17:03;;;;;;;0.08;0.08;;;;;;;-0.48;54.24;101179.71;1753867;80;21589;-45
2021/03/09 11:20:03;;;;;;;0.30;0.30;;;;;;;-0.42;53.91;101182.17;1760800;80;21158;-44
2021/03/09 11:23:06;;;;;;;0.10;0.10;;;;;;;-0.37;54.67;101187.81;1739698;81;21154;-44
2021/03/09 11:26:06;;;;;;;0.10;0.10;;;;;;;-0.31;53.13;101199.13;1771629;80;21766;-44
2021/03/09 11:29:07;;;;;;;0.03;0.03;;;;;;;-0.38;52.91;101191.50;1774364;80;21161;-44
2021/03/09 11:32:08;;;;;;;0.68;0.68;;;;;;;-0.47;52.02;101191.28;1764747;81;21626;-45
2021/03/09 11:35:10;;;;;;;0.10;0.10;;;;;;;-0.48;52.92;101192.31;1765062;80;21566;-44
2021/03/09 11:38:10;;;;;;;0.40;0.35;;;;;;;-0.30;52.51;101193.23;1786156;80;21406;-45
2021/03/09 11:41:11;;;;;;;0.82;0.82;;;;;;;-0.14;51.58;101188.16;1786143;80;21122;-48
2021/03/09 11:44:12;;;;;;;0.30;0.30;;;;;;;-0.02;51.08;101186.63;1783465;79;21115;-47
2021/03/09 11:47:14;;;;;;;1.17;0.30;;;;;;;-0.07;52.42;101205.18;1773025;79;21569;-47
2021/03/09 11:50:16;;;;;;;0.00;0.00;;;;;;;-0.30;52.07;101205.32;1770656;80;21554;-47
2021/03/09 11:53:17;;;;;;;0.03;0.03;;;;;;;-0.48;54.42;101210.59;1737158;81;21131;-47
2021/03/09 11:56:17;;;;;;;0.30;0.30;;;;;;;-0.47;55.46;101214.95;1777202;79;21099;-47
2021/03/09 11:59:18;;;;;;;0.17;0.17;;;;;;;-0.63;55.36;101223.20;1754942;81;21431;-47
2021/03/09 12:02:19;;;;;;;0.10;0.10;;;;;;;-0.93;56.00;101223.73;1762701;80;21493;-47
2021/03/09 12:05:19;;;;;;;0.65;0.57;;;;;;;-1.14;56.21;101224.45;1782256;80;21471;-47
2021/03/09 12:08:20;;;;;;;0.10;0.10;;;;;;;-1.22;57.28;101221.34;1784256;80;21142;-48
2021/03/09 12:11:21;;;;;;;0.72;0.60;;;;;;;-1.22;57.50;101221.86;1785154;80;21162;-48
2021/03/09 12:14:22;;;;;;;0.00;0.00;;;;;;;-1.30;57.05;101224.94;1782134;79;21124;-48
2021/03/09 12:17:24;;;;;;;0.08;0.08;;;;;;;-1.36;57.88;101228.36;1782932;80;21220;-47
2021/03/09 12:20:25;;;;;;;0.33;0.33;;;;;;;-1.46;58.27;101218.89;1763521;79;21188;-47
2021/03/09 12:23:26;;;;;;;0.03;0.03;;;;;;;-1.65;58.85;101225.61;1759402;79;21118;-47
2021/03/09 12:26:28;;;;;;;0.10;0.10;;;;;;;-1.68;59.73;101221.44;1742608;80;21431;-47
2021/03/09 12:29:28;;;;;;;0.10;0.10;;;;;;;-1.63;58.18;101219.05;1784374;78;21309;-47
2021/03/09 12:32:29;;;;;;;0.10;0.10;;;;;;;-1.56;59.07;101220.48;1786329;78;21229;-47
2021/03/09 12:35:29;;;;;;;0.75;0.75;;;;;;;-1.35;59.48;101220.63;1751692;81;21138;-47
2021/03/09 12:38:30;;;;;;;0.10;0.10;;;;;;;-1.15;59.32;101216.09;1816901;78;21115;-47
2021/03/09 12:41:30;;;;;;;0.10;0.10;;;;;;;-1.05;57.52;101217.98;1817717;78;21127;-47
2021/03/09 12:44:31;;;;;;;0.00;0.00;;;;;;;-0.92;57.10;101208.77;1751376;81;21544;-47
2021/03/09 12:47:31;;;;;;;0.57;0.57;;;;;;;-0.81;57.28;101212.03;1741596;81;21254;-47
2021/03/09 12:50:33;;;;;;;0.10;0.10;;;;;;;-0.70;56.76;101208.35;1758338;81;21170;-47
2021/03/09 12:53:34;;;;;;;0.10;0.10;;;;;;;-0.57;55.81;101213.56;1793939;78;21438;-48
2021/03/09 12:56:36;;;;;;;0.10;0.10;;;;;;;-0.52;55.51;101224.09;1770279;80;29704;-47
2021/03/09 12:59:37;;;;;;;0.05;0.05;;;;;;;-0.47;55.29;101228.87;1746828;80;21138;-47
2021/03/09 13:02:39;;;;;;;0.17;0.17;;;;;;;-0.50;55.19;101227.39;1751746;81;21899;-47
2021/03/09 13:05:39;;;;;;;0.10;0.10;;;;;;;-0.57;55.79;101237.25;1748628;81;21700;-47
2021/03/09 13:08:41;;;;;;;0.08;0.08;;;;;;;-0.64;55.39;101232.30;1752793;80;21419;-48
2021/03/09 13:11:41;;;;;;;0.10;0.10;;;;;;;-0.71;56.03;101234.88;1737089;81;21171;-47
2021/03/09 13:14:41;;;;;;;0.10;0.10;;;;;;;-0.80;56.51;101246.72;1796110;78;21143;-47
2021/03/09 13:17:45;;;;;;;0.10;0.10;;;;;;;-0.91;55.77;101251.22;1731425;80;21684;-47
2021/03/09 13:20:46;;;;;;;0.35;0.20;;;;;;;-1.16;57.78;101247.96;1740042;81;21161;-47
2021/03/09 13:23:47;;;;;;;0.20;0.20;;;;;;;-1.31;60.12;101250.10;1755689;80;21391;-47
2021/03/09 13:26:47;;;;;;;0.42;0.42;;;;;;;-1.54;61.67;101255.98;1751492;81;21110;-47
2021/03/09 13:29:49;;;;;;;1.12;0.53;;;;;;;-1.67;62.73;101259.79;1743081;81;21134;-47
2021/03/09 13:32:51;;;;;;;0.55;0.30;;;;;;;-1.65;63.24;101268.48;1746309;81;21254;-47
2021/03/09 13:35:52;;;;;;;0.45;0.45;;;;;;;-1.59;63.69;101278.48;1801696;78;21099;-47
2021/03/09 13:38:53;;;;;;;0.03;0.03;;;;;;;-1.49;64.32;101280.41;1791655;78;21474;-47
2021/03/09 13:41:54;;;;;;;0.10;0.10;;;;;;;-1.33;64.48;101277.60;1746675;81;21131;-47
2021/03/09 13:44:56;;;;;;;0.20;0.20;;;;;;;-1.30;64.34;101273.20;1786819;78;21119;-47
2021/03/09 13:47:58;;;;;;;0.10;0.10;;;;;;;-1.28;63.96;101268.19;1797999;78;21154;-47
2021/03/09 13:50:59;;;;;;;0.00;0.00;;;;;;;-1.34;63.57;101267.87;1790544;78;21182;-47
2021/03/09 13:53:59;;;;;;;0.10;0.10;;;;;;;-1.41;63.50;101264.75;1787316;78;21156;-47
2021/03/09 13:57:01;;;;;;;0.50;0.47;;;;;;;-1.48;63.28;101260.64;1803112;78;21415;-47
2021/03/09 14:00:02;;;;;;;0.20;0.20;;;;;;;-1.55;63.12;101261.03;1764176;80;21495;-47
2021/03/09 14:03:04;;;;;;;0.30;0.30;;;;;;;-1.58;62.58;101259.55;1740909;80;21187;-48
2021/03/09 14:06:06;;;;;;;0.10;0.10;;;;;;;-1.52;62.28;101257.98;1756709;81;21154;-47
2021/03/09 14:09:07;;;;;;;0.10;0.10;;;;;;;-1.43;62.33;101262.27;1757623;81;21526;-48